sensor_id;sensor_type;location;lat;lon;timestamp;temperature;humidity
44894;DHT22;30625;52.206;21.030;2022-10-18T00:01:08;13.70;99.90
44894;DHT22;30625;52.206;21.030;2022-10-18T00:03:35;13.80;99.90
44894;DHT22;30625;52.206;21.030;2022-10-18T00:06:01;13.70;99.90
44894;DHT22;30625;52.206;21.030;2022-10-18T00:08:27;13.70;99.90
44894;DHT22;30625;52.206;21.030;2022-10-18T00:10:53;13.60;99.90
44894;DHT22;30625;52.206;21.030;2022-10-18T00:13:19;13.60;99.90
44894;DHT22;30625;52.206;21.030;2022-10-18T00:15:52;13.60;99.90
44894;DHT22;30625;52.206;21.030;2022-10-18T00:18:18;13.50;99.90
44894;DHT22;30625;52.206;21.030;2022-10-18T00:20:44;13.50;99.90
44894;DHT22;30625;52.206;21.030;2022-10-18T00:23:10;13.50;99.90
44894;DHT22;30625;52.206;21.030;2022-10-18T00:25:36;13.50;99.90
44894;DHT22;30625;52.206;21.030;2022-10-18T00:28:01;13.50;99.90
44894;DHT22;30625;52.206;21.030;2022-10-18T00:30:27;13.40;99.90
44894;DHT22;30625;52.206;21.030;2022-10-18T00:32:53;13.50;99.90
44894;DHT22;30625;52.206;21.030;2022-10-18T00:35:18;13.40;99.90
44894;DHT22;30625;52.206;21.030;2022-10-18T00:37:44;13.70;99.90
44894;DHT22;30625;52.206;21.030;2022-10-18T00:40:10;13.40;99.90
44894;DHT22;30625;52.206;21.030;2022-10-18T00:42:36;13.30;99.90
44894;DHT22;30625;52.206;21.030;2022-10-18T00:45:25;13.30;99.90
44894;DHT22;30625;52.206;21.030;2022-10-18T00:47:55;13.30;99.90
44894;DHT22;30625;52.206;21.030;2022-10-18T00:50:22;13.30;99.90
44894;DHT22;30625;52.206;21.030;2022-10-18T00:52:53;13.30;99.90
44894;DHT22;30625;52.206;21.030;2022-10-18T00:55:19;13.20;99.90
44894;DHT22;30625;52.206;21.030;2022-10-18T00:57:45;13.20;99.90
44894;DHT22;30625;52.206;21.030;2022-10-18T01:00:11;13.20;99.90
44894;DHT22;30625;52.206;21.030;2022-10-18T01:02:39;13.20;99.90
44894;DHT22;30625;52.206;21.030;2022-10-18T01:05:06;13.20;99.90
44894;DHT22;30625;52.206;21.030;2022-10-18T01:08:05;13.20;99.90
44894;DHT22;30625;52.206;21.030;2022-10-18T01:11:37;13.20;99.90
44894;DHT22;30625;52.206;21.030;2022-10-18T01:13:57;13.10;99.90
44894;DHT22;30625;52.206;21.030;2022-10-18T01:16:32;13.10;99.90
44894;DHT22;30625;52.206;21.030;2022-10-18T01:19:04;13.10;99.90
44894;DHT22;30625;52.206;21.030;2022-10-18T01:21:54;13.10;99.90
44894;DHT22;30625;52.206;21.030;2022-10-18T01:30:20;13.00;99.90
44894;DHT22;30625;52.206;21.030;2022-10-18T01:32:51;13.00;99.90
44894;DHT22;30625;52.206;21.030;2022-10-18T01:35:27;13.00;99.90
44894;DHT22;30625;52.206;21.030;2022-10-18T01:37:55;13.00;99.90
44894;DHT22;30625;52.206;21.030;2022-10-18T01:40:24;13.10;99.90
44894;DHT22;30625;52.206;21.030;2022-10-18T01:45:25;13.10;99.90
44894;DHT22;30625;52.206;21.030;2022-10-18T01:47:51;13.10;99.90
44894;DHT22;30625;52.206;21.030;2022-10-18T01:50:28;13.10;99.90
44894;DHT22;30625;52.206;21.030;2022-10-18T01:52:54;13.20;99.90
44894;DHT22;30625;52.206;21.030;2022-10-18T01:55:21;13.10;99.90
44894;DHT22;30625;52.206;21.030;2022-10-18T01:57:59;13.20;99.90
44894;DHT22;30625;52.206;21.030;2022-10-18T02:00:34;13.20;99.90
44894;DHT22;30625;52.206;21.030;2022-10-18T02:03:06;13.20;99.90
44894;DHT22;30625;52.206;21.030;2022-10-18T02:05:43;13.20;99.90
44894;DHT22;30625;52.206;21.030;2022-10-18T02:13:24;13.30;99.90
44894;DHT22;30625;52.206;21.030;2022-10-18T02:15:51;13.30;99.90
44894;DHT22;30625;52.206;21.030;2022-10-18T02:18:21;13.40;99.90
44894;DHT22;30625;52.206;21.030;2022-10-18T02:20:47;13.40;99.90
44894;DHT22;30625;52.206;21.030;2022-10-18T02:23:13;13.40;99.90
44894;DHT22;30625;52.206;21.030;2022-10-18T02:25:39;13.40;99.90
44894;DHT22;30625;52.206;21.030;2022-10-18T02:28:05;13.40;99.90
44894;DHT22;30625;52.206;21.030;2022-10-18T02:30:39;13.50;99.90
44894;DHT22;30625;52.206;21.030;2022-10-18T02:33:25;13.50;99.90
44894;DHT22;30625;52.206;21.030;2022-10-18T02:35:54;13.60;99.90
44894;DHT22;30625;52.206;21.030;2022-10-18T02:38:21;13.60;99.90
44894;DHT22;30625;52.206;21.030;2022-10-18T02:40:49;13.60;99.90
44894;DHT22;30625;52.206;21.030;2022-10-18T02:43:14;13.70;99.90
44894;DHT22;30625;52.206;21.030;2022-10-18T02:45:40;13.70;99.90
44894;DHT22;30625;52.206;21.030;2022-10-18T02:48:05;13.70;99.90
44894;DHT22;30625;52.206;21.030;2022-10-18T02:50:31;13.70;99.90
44894;DHT22;30625;52.206;21.030;2022-10-18T02:52:57;13.70;99.90
44894;DHT22;30625;52.206;21.030;2022-10-18T02:55:22;13.70;99.90
44894;DHT22;30625;52.206;21.030;2022-10-18T02:57:48;13.70;99.90
44894;DHT22;30625;52.206;21.030;2022-10-18T03:00:13;13.70;99.90
44894;DHT22;30625;52.206;21.030;2022-10-18T03:02:39;13.70;99.90
44894;DHT22;30625;52.206;21.030;2022-10-18T03:05:05;13.70;99.90
44894;DHT22;30625;52.206;21.030;2022-10-18T03:07:30;13.60;99.90
44894;DHT22;30625;52.206;21.030;2022-10-18T03:09:56;13.60;99.90
44894;DHT22;30625;52.206;21.030;2022-10-18T03:12:21;13.60;99.90
44894;DHT22;30625;52.206;21.030;2022-10-18T03:14:47;13.60;99.90
44894;DHT22;30625;52.206;21.030;2022-10-18T03:17:12;13.60;99.90
44894;DHT22;30625;52.206;21.030;2022-10-18T03:19:38;13.60;99.90
44894;DHT22;30625;52.206;21.030;2022-10-18T03:22:04;11.70;99.90
44894;DHT22;30625;52.206;21.030;2022-10-18T03:24:29;13.60;99.90
44894;DHT22;30625;52.206;21.030;2022-10-18T03:26:55;13.60;99.90
44894;DHT22;30625;52.206;21.030;2022-10-18T03:29:20;13.60;99.90
44894;DHT22;30625;52.206;21.030;2022-10-18T03:31:46;13.60;99.90
44894;DHT22;30625;52.206;21.030;2022-10-18T03:34:12;13.60;99.90
44894;DHT22;30625;52.206;21.030;2022-10-18T03:36:37;13.60;99.90
44894;DHT22;30625;52.206;21.030;2022-10-18T03:39:05;13.60;99.90
44894;DHT22;30625;52.206;21.030;2022-10-18T03:41:30;13.50;99.90
44894;DHT22;30625;52.206;21.030;2022-10-18T03:43:56;13.50;99.90
44894;DHT22;30625;52.206;21.030;2022-10-18T03:46:21;13.50;99.90
44894;DHT22;30625;52.206;21.030;2022-10-18T03:48:47;13.60;99.90
44894;DHT22;30625;52.206;21.030;2022-10-18T03:51:12;13.50;99.90
44894;DHT22;30625;52.206;21.030;2022-10-18T03:53:38;13.50;99.90
44894;DHT22;30625;52.206;21.030;2022-10-18T03:56:04;13.50;99.90
44894;DHT22;30625;52.206;21.030;2022-10-18T03:58:29;13.50;99.90
44894;DHT22;30625;52.206;21.030;2022-10-18T04:00:55;13.60;99.90
44894;DHT22;30625;52.206;21.030;2022-10-18T04:03:21;13.60;99.90
44894;DHT22;30625;52.206;21.030;2022-10-18T04:05:47;13.60;99.90
44894;DHT22;30625;52.206;21.030;2022-10-18T04:08:13;13.60;99.90
44894;DHT22;30625;52.206;21.030;2022-10-18T04:10:39;13.60;99.90
44894;DHT22;30625;52.206;21.030;2022-10-18T04:13:05;13.30;99.90
44894;DHT22;30625;52.206;21.030;2022-10-18T04:15:30;13.60;99.90
44894;DHT22;30625;52.206;21.030;2022-10-18T04:17:56;13.60;99.90
44894;DHT22;30625;52.206;21.030;2022-10-18T04:20:22;13.70;99.90
44894;DHT22;30625;52.206;21.030;2022-10-18T04:22:48;13.70;99.90
44894;DHT22;30625;52.206;21.030;2022-10-18T04:25:14;16.20;99.90
44894;DHT22;30625;52.206;21.030;2022-10-18T04:27:40;13.70;99.90
44894;DHT22;30625;52.206;21.030;2022-10-18T04:30:06;13.70;99.90
44894;DHT22;30625;52.206;21.030;2022-10-18T04:32:31;13.70;99.90
44894;DHT22;30625;52.206;21.030;2022-10-18T04:34:57;13.70;99.90
44894;DHT22;30625;52.206;21.030;2022-10-18T04:37:22;13.70;99.90
44894;DHT22;30625;52.206;21.030;2022-10-18T04:39:48;13.70;99.90
44894;DHT22;30625;52.206;21.030;2022-10-18T04:42:13;13.70;99.90
44894;DHT22;30625;52.206;21.030;2022-10-18T04:44:39;13.80;99.90
44894;DHT22;30625;52.206;21.030;2022-10-18T04:47:04;13.80;99.90
44894;DHT22;30625;52.206;21.030;2022-10-18T04:49:30;13.80;99.90
44894;DHT22;30625;52.206;21.030;2022-10-18T04:51:56;13.80;99.90
44894;DHT22;30625;52.206;21.030;2022-10-18T04:54:22;13.80;99.90
44894;DHT22;30625;52.206;21.030;2022-10-18T04:56:47;13.90;99.90
44894;DHT22;30625;52.206;21.030;2022-10-18T04:59:13;13.90;99.90
44894;DHT22;30625;52.206;21.030;2022-10-18T05:01:38;13.90;99.90
44894;DHT22;30625;52.206;21.030;2022-10-18T05:04:06;13.90;99.90
44894;DHT22;30625;52.206;21.030;2022-10-18T05:06:43;13.90;99.90
44894;DHT22;30625;52.206;21.030;2022-10-18T05:09:09;13.90;99.90
44894;DHT22;30625;52.206;21.030;2022-10-18T05:11:34;13.90;99.90
44894;DHT22;30625;52.206;21.030;2022-10-18T05:14:00;13.90;99.90
44894;DHT22;30625;52.206;21.030;2022-10-18T05:16:25;13.90;99.90
44894;DHT22;30625;52.206;21.030;2022-10-18T05:18:52;13.90;99.90
44894;DHT22;30625;52.206;21.030;2022-10-18T05:21:18;13.90;99.90
44894;DHT22;30625;52.206;21.030;2022-10-18T05:23:43;14.00;99.90
44894;DHT22;30625;52.206;21.030;2022-10-18T05:26:09;14.00;99.90
44894;DHT22;30625;52.206;21.030;2022-10-18T05:28:35;14.00;99.90
44894;DHT22;30625;52.206;21.030;2022-10-18T05:31:05;14.00;99.90
44894;DHT22;30625;52.206;21.030;2022-10-18T05:33:31;14.00;99.90
44894;DHT22;30625;52.206;21.030;2022-10-18T05:35:56;14.00;99.90
44894;DHT22;30625;52.206;21.030;2022-10-18T05:38:22;14.00;99.90
44894;DHT22;30625;52.206;21.030;2022-10-18T05:40:48;14.00;99.90
44894;DHT22;30625;52.206;21.030;2022-10-18T05:43:13;14.00;99.90
44894;DHT22;30625;52.206;21.030;2022-10-18T05:45:39;14.00;99.90
44894;DHT22;30625;52.206;21.030;2022-10-18T05:48:10;14.00;99.90
44894;DHT22;30625;52.206;21.030;2022-10-18T05:50:36;14.00;99.90
44894;DHT22;30625;52.206;21.030;2022-10-18T05:53:01;14.00;99.90
44894;DHT22;30625;52.206;21.030;2022-10-18T05:55:27;14.10;99.90
44894;DHT22;30625;52.206;21.030;2022-10-18T05:57:52;14.10;99.90
44894;DHT22;30625;52.206;21.030;2022-10-18T06:00:18;14.20;99.90
44894;DHT22;30625;52.206;21.030;2022-10-18T06:02:44;14.20;99.90
44894;DHT22;30625;52.206;21.030;2022-10-18T06:05:09;14.30;99.90
44894;DHT22;30625;52.206;21.030;2022-10-18T06:07:35;14.30;99.90
44894;DHT22;30625;52.206;21.030;2022-10-18T06:10:00;14.40;99.90
44894;DHT22;30625;52.206;21.030;2022-10-18T06:12:26;14.50;99.90
44894;DHT22;30625;52.206;21.030;2022-10-18T06:14:51;14.20;99.90
44894;DHT22;30625;52.206;21.030;2022-10-18T06:17:17;14.60;99.90
44894;DHT22;30625;52.206;21.030;2022-10-18T06:19:43;14.70;99.90
44894;DHT22;30625;52.206;21.030;2022-10-18T06:22:09;14.80;99.90
44894;DHT22;30625;52.206;21.030;2022-10-18T06:24:35;14.80;99.90
44894;DHT22;30625;52.206;21.030;2022-10-18T06:27:00;14.90;99.90
44894;DHT22;30625;52.206;21.030;2022-10-18T06:29:28;15.10;99.90
44894;DHT22;30625;52.206;21.030;2022-10-18T06:31:54;15.10;99.90
44894;DHT22;30625;52.206;21.030;2022-10-18T06:34:19;15.10;99.90
44894;DHT22;30625;52.206;21.030;2022-10-18T06:36:45;15.10;99.90
44894;DHT22;30625;52.206;21.030;2022-10-18T06:39:10;15.20;99.90
44894;DHT22;30625;52.206;21.030;2022-10-18T06:41:36;15.20;99.90
44894;DHT22;30625;52.206;21.030;2022-10-18T06:44:01;15.30;99.90
44894;DHT22;30625;52.206;21.030;2022-10-18T06:46:37;15.30;99.90
44894;DHT22;30625;52.206;21.030;2022-10-18T06:49:02;15.40;99.90
44894;DHT22;30625;52.206;21.030;2022-10-18T06:51:28;15.50;99.90
44894;DHT22;30625;52.206;21.030;2022-10-18T06:53:53;15.50;99.90
44894;DHT22;30625;52.206;21.030;2022-10-18T06:56:19;15.50;99.90
44894;DHT22;30625;52.206;21.030;2022-10-18T06:58:44;15.50;99.90
44894;DHT22;30625;52.206;21.030;2022-10-18T07:01:11;15.60;99.90
44894;DHT22;30625;52.206;21.030;2022-10-18T07:03:37;15.80;99.90
44894;DHT22;30625;52.206;21.030;2022-10-18T07:06:04;15.70;99.90
44894;DHT22;30625;52.206;21.030;2022-10-18T07:08:30;15.80;99.90
44894;DHT22;30625;52.206;21.030;2022-10-18T07:10:55;15.90;99.90
44894;DHT22;30625;52.206;21.030;2022-10-18T07:13:21;16.00;99.90
44894;DHT22;30625;52.206;21.030;2022-10-18T07:15:47;16.00;99.90
44894;DHT22;30625;52.206;21.030;2022-10-18T07:18:12;16.10;99.90
44894;DHT22;30625;52.206;21.030;2022-10-18T07:20:38;16.10;99.90
44894;DHT22;30625;52.206;21.030;2022-10-18T07:23:03;16.20;99.90
44894;DHT22;30625;52.206;21.030;2022-10-18T07:25:33;16.20;99.90
44894;DHT22;30625;52.206;21.030;2022-10-18T07:27:59;16.20;99.90
44894;DHT22;30625;52.206;21.030;2022-10-18T07:30:24;16.20;99.90
44894;DHT22;30625;52.206;21.030;2022-10-18T07:32:50;16.30;99.90
44894;DHT22;30625;52.206;21.030;2022-10-18T07:35:16;16.30;99.90
44894;DHT22;30625;52.206;21.030;2022-10-18T07:37:41;16.50;99.90
44894;DHT22;30625;52.206;21.030;2022-10-18T07:40:07;16.50;99.90
44894;DHT22;30625;52.206;21.030;2022-10-18T07:42:33;16.50;99.90
44894;DHT22;30625;52.206;21.030;2022-10-18T07:44:59;16.60;99.30
44894;DHT22;30625;52.206;21.030;2022-10-18T07:47:24;16.60;99.50
44894;DHT22;30625;52.206;21.030;2022-10-18T07:49:50;16.70;99.80
44894;DHT22;30625;52.206;21.030;2022-10-18T07:52:15;16.60;99.30
44894;DHT22;30625;52.206;21.030;2022-10-18T07:54:41;16.70;99.30
44894;DHT22;30625;52.206;21.030;2022-10-18T07:57:06;16.80;99.10
44894;DHT22;30625;52.206;21.030;2022-10-18T07:59:32;16.80;99.70
44894;DHT22;30625;52.206;21.030;2022-10-18T08:01:57;16.90;99.20
44894;DHT22;30625;52.206;21.030;2022-10-18T08:04:23;17.00;99.80
44894;DHT22;30625;52.206;21.030;2022-10-18T08:06:48;17.00;99.10
44894;DHT22;30625;52.206;21.030;2022-10-18T08:09:14;17.00;98.20
44894;DHT22;30625;52.206;21.030;2022-10-18T08:11:39;17.00;98.60
44894;DHT22;30625;52.206;21.030;2022-10-18T08:14:05;17.00;98.70
44894;DHT22;30625;52.206;21.030;2022-10-18T08:16:31;17.00;99.00
44894;DHT22;30625;52.206;21.030;2022-10-18T08:18:56;17.10;98.80
44894;DHT22;30625;52.206;21.030;2022-10-18T08:21:22;17.10;99.30
44894;DHT22;30625;52.206;21.030;2022-10-18T08:23:48;17.10;99.60
44894;DHT22;30625;52.206;21.030;2022-10-18T08:26:17;17.10;99.00
44894;DHT22;30625;52.206;21.030;2022-10-18T08:28:43;17.00;98.40
44894;DHT22;30625;52.206;21.030;2022-10-18T08:31:10;17.00;98.50
44894;DHT22;30625;52.206;21.030;2022-10-18T08:33:36;17.00;98.90
44894;DHT22;30625;52.206;21.030;2022-10-18T08:36:03;17.10;98.50
44894;DHT22;30625;52.206;21.030;2022-10-18T08:38:32;17.10;98.20
44894;DHT22;30625;52.206;21.030;2022-10-18T08:40:59;17.10;98.70
44894;DHT22;30625;52.206;21.030;2022-10-18T08:43:26;15.70;98.00
44894;DHT22;30625;52.206;21.030;2022-10-18T08:45:54;17.20;98.60
44894;DHT22;30625;52.206;21.030;2022-10-18T08:48:23;17.20;98.30
44894;DHT22;30625;52.206;21.030;2022-10-18T08:50:49;17.30;98.10
44894;DHT22;30625;52.206;21.030;2022-10-18T08:53:28;17.30;98.20
44894;DHT22;30625;52.206;21.030;2022-10-18T08:55:56;17.40;98.30
44894;DHT22;30625;52.206;21.030;2022-10-18T08:58:28;17.50;98.10
44894;DHT22;30625;52.206;21.030;2022-10-18T09:06:48;18.10;96.50
44894;DHT22;30625;52.206;21.030;2022-10-18T09:08:57;18.30;96.60
44894;DHT22;30625;52.206;21.030;2022-10-18T09:14:01;18.70;96.20
44894;DHT22;30625;52.206;21.030;2022-10-18T09:19:06;19.00;94.90
44894;DHT22;30625;52.206;21.030;2022-10-18T09:26:47;19.60;94.60
44894;DHT22;30625;52.206;21.030;2022-10-18T09:31:45;19.70;94.80
44894;DHT22;30625;52.206;21.030;2022-10-18T09:34:25;19.90;94.20
44894;DHT22;30625;52.206;21.030;2022-10-18T09:36:53;20.10;92.80
44894;DHT22;30625;52.206;21.030;2022-10-18T09:39:22;20.10;93.20
44894;DHT22;30625;52.206;21.030;2022-10-18T09:41:53;20.10;92.90
44894;DHT22;30625;52.206;21.030;2022-10-18T09:44:22;20.00;92.90
44894;DHT22;30625;52.206;21.030;2022-10-18T09:46:54;19.70;93.50
44894;DHT22;30625;52.206;21.030;2022-10-18T09:49:25;19.60;93.70
44894;DHT22;30625;52.206;21.030;2022-10-18T09:51:52;19.50;93.50
44894;DHT22;30625;52.206;21.030;2022-10-18T09:54:32;19.60;93.30
44894;DHT22;30625;52.206;21.030;2022-10-18T09:59:40;19.60;94.60
44894;DHT22;30625;52.206;21.030;2022-10-18T10:02:08;19.60;94.20
44894;DHT22;30625;52.206;21.030;2022-10-18T10:04:36;19.70;93.50
44894;DHT22;30625;52.206;21.030;2022-10-18T10:07:02;19.90;93.40
44894;DHT22;30625;52.206;21.030;2022-10-18T10:09:36;20.00;93.30
44894;DHT22;30625;52.206;21.030;2022-10-18T10:12:21;20.30;92.90
44894;DHT22;30625;52.206;21.030;2022-10-18T10:14:48;20.50;92.30
44894;DHT22;30625;52.206;21.030;2022-10-18T10:17:25;20.60;92.20
44894;DHT22;30625;52.206;21.030;2022-10-18T10:22:26;20.70;92.10
44894;DHT22;30625;52.206;21.030;2022-10-18T10:24:52;20.80;92.30
44894;DHT22;30625;52.206;21.030;2022-10-18T10:27:20;20.90;92.20
44894;DHT22;30625;52.206;21.030;2022-10-18T10:32:12;20.80;92.50
44894;DHT22;30625;52.206;21.030;2022-10-18T10:34:38;20.70;93.10
44894;DHT22;30625;52.206;21.030;2022-10-18T10:37:22;20.40;92.80
44894;DHT22;30625;52.206;21.030;2022-10-18T10:40:03;20.30;92.80
44894;DHT22;30625;52.206;21.030;2022-10-18T10:42:29;20.30;92.70
44894;DHT22;30625;52.206;21.030;2022-10-18T10:44:55;20.30;93.20
44894;DHT22;30625;52.206;21.030;2022-10-18T10:47:30;20.30;93.20
44894;DHT22;30625;52.206;21.030;2022-10-18T10:49:56;20.30;92.90
44894;DHT22;30625;52.206;21.030;2022-10-18T10:52:23;20.30;93.20
44894;DHT22;30625;52.206;21.030;2022-10-18T10:54:49;20.20;93.00
44894;DHT22;30625;52.206;21.030;2022-10-18T10:57:17;20.30;93.50
44894;DHT22;30625;52.206;21.030;2022-10-18T10:59:45;20.30;93.70
44894;DHT22;30625;52.206;21.030;2022-10-18T11:04:37;20.30;93.70
44894;DHT22;30625;52.206;21.030;2022-10-18T11:09:52;20.20;94.00
44894;DHT22;30625;52.206;21.030;2022-10-18T11:17:38;20.10;93.50
44894;DHT22;30625;52.206;21.030;2022-10-18T11:22:35;20.10;94.30
44894;DHT22;30625;52.206;21.030;2022-10-18T11:25:03;20.20;94.70
44894;DHT22;30625;52.206;21.030;2022-10-18T11:30:31;20.30;94.10
44894;DHT22;30625;52.206;21.030;2022-10-18T11:33:13;20.40;93.60
44894;DHT22;30625;52.206;21.030;2022-10-18T11:43:33;20.30;94.50
44894;DHT22;30625;52.206;21.030;2022-10-18T11:46:19;20.10;95.00
44894;DHT22;30625;52.206;21.030;2022-10-18T11:48:50;20.20;94.80
44894;DHT22;30625;52.206;21.030;2022-10-18T11:51:24;20.10;95.20
44894;DHT22;30625;52.206;21.030;2022-10-18T12:04:01;20.10;95.80
44894;DHT22;30625;52.206;21.030;2022-10-18T12:06:30;20.10;95.20
44894;DHT22;30625;52.206;21.030;2022-10-18T12:09:01;20.10;95.10
44894;DHT22;30625;52.206;21.030;2022-10-18T12:11:31;20.10;94.80
44894;DHT22;30625;52.206;21.030;2022-10-18T12:13:59;20.10;95.40
44894;DHT22;30625;52.206;21.030;2022-10-18T12:16:27;20.00;95.70
44894;DHT22;30625;52.206;21.030;2022-10-18T12:18:59;20.10;96.00
44894;DHT22;30625;52.206;21.030;2022-10-18T12:21:26;20.30;95.70
44894;DHT22;30625;52.206;21.030;2022-10-18T12:26:31;20.10;95.10
44894;DHT22;30625;52.206;21.030;2022-10-18T12:29:06;20.10;95.40
44894;DHT22;30625;52.206;21.030;2022-10-18T12:31:37;20.00;96.30
44894;DHT22;30625;52.206;21.030;2022-10-18T12:39:31;20.00;95.50
44894;DHT22;30625;52.206;21.030;2022-10-18T12:41:57;20.10;95.50
44894;DHT22;30625;52.206;21.030;2022-10-18T12:44:27;20.00;95.50
44894;DHT22;30625;52.206;21.030;2022-10-18T12:46:53;20.00;95.70
44894;DHT22;30625;52.206;21.030;2022-10-18T12:49:29;20.00;95.80
44894;DHT22;30625;52.206;21.030;2022-10-18T12:51:57;20.00;96.60
44894;DHT22;30625;52.206;21.030;2022-10-18T12:54:41;20.00;97.10
44894;DHT22;30625;52.206;21.030;2022-10-18T12:57:22;19.90;97.10
44894;DHT22;30625;52.206;21.030;2022-10-18T12:59:47;20.00;96.10
44894;DHT22;30625;52.206;21.030;2022-10-18T13:04:39;19.70;96.60
44894;DHT22;30625;52.206;21.030;2022-10-18T13:09:33;19.80;97.10
44894;DHT22;30625;52.206;21.030;2022-10-18T13:24:45;19.60;97.10
44894;DHT22;30625;52.206;21.030;2022-10-18T13:29:54;19.40;97.10
44894;DHT22;30625;52.206;21.030;2022-10-18T13:35:42;19.30;97.50
44894;DHT22;30625;52.206;21.030;2022-10-18T13:41:02;19.20;97.70
44894;DHT22;30625;52.206;21.030;2022-10-18T13:46:13;19.10;98.30
44894;DHT22;30625;52.206;21.030;2022-10-18T13:53:42;19.10;98.00
44894;DHT22;30625;52.206;21.030;2022-10-18T13:56:13;19.00;98.30
44894;DHT22;30625;52.206;21.030;2022-10-18T14:06:34;19.00;98.60
44894;DHT22;30625;52.206;21.030;2022-10-18T14:09:01;18.90;99.00
44894;DHT22;30625;52.206;21.030;2022-10-18T14:11:40;19.00;99.00
44894;DHT22;30625;52.206;21.030;2022-10-18T14:14:29;18.90;99.20
44894;DHT22;30625;52.206;21.030;2022-10-18T14:16:59;18.90;99.50
44894;DHT22;30625;52.206;21.030;2022-10-18T14:19:33;18.90;99.40
44894;DHT22;30625;52.206;21.030;2022-10-18T14:22:06;18.80;99.50
44894;DHT22;30625;52.206;21.030;2022-10-18T14:24:34;18.80;99.40
44894;DHT22;30625;52.206;21.030;2022-10-18T14:27:19;18.80;99.60
44894;DHT22;30625;52.206;21.030;2022-10-18T14:29:45;18.80;99.90
44894;DHT22;30625;52.206;21.030;2022-10-18T14:32:26;18.80;99.90
44894;DHT22;30625;52.206;21.030;2022-10-18T14:34:52;18.70;99.90
44894;DHT22;30625;52.206;21.030;2022-10-18T14:37:26;18.70;99.90
44894;DHT22;30625;52.206;21.030;2022-10-18T14:39:52;18.70;99.90
44894;DHT22;30625;52.206;21.030;2022-10-18T14:42:18;18.60;99.90
44894;DHT22;30625;52.206;21.030;2022-10-18T14:44:46;18.60;99.90
44894;DHT22;30625;52.206;21.030;2022-10-18T14:47:27;18.60;99.90
44894;DHT22;30625;52.206;21.030;2022-10-18T14:49:55;18.60;99.90
44894;DHT22;30625;52.206;21.030;2022-10-18T14:52:25;18.50;99.90
44894;DHT22;30625;52.206;21.030;2022-10-18T14:54:53;18.40;99.90
44894;DHT22;30625;52.206;21.030;2022-10-18T14:57:21;18.40;99.90
44894;DHT22;30625;52.206;21.030;2022-10-18T14:59:48;18.30;99.90
44894;DHT22;30625;52.206;21.030;2022-10-18T15:02:22;18.20;99.90
44894;DHT22;30625;52.206;21.030;2022-10-18T15:04:58;18.20;99.90
44894;DHT22;30625;52.206;21.030;2022-10-18T15:07:25;18.00;99.90
44894;DHT22;30625;52.206;21.030;2022-10-18T15:09:54;18.00;99.90
44894;DHT22;30625;52.206;21.030;2022-10-18T15:12:19;17.90;99.90
44894;DHT22;30625;52.206;21.030;2022-10-18T15:14:45;17.90;99.90
44894;DHT22;30625;52.206;21.030;2022-10-18T15:17:12;17.80;99.90
44894;DHT22;30625;52.206;21.030;2022-10-18T15:19:39;17.80;99.90
44894;DHT22;30625;52.206;21.030;2022-10-18T15:22:20;17.70;99.90
44894;DHT22;30625;52.206;21.030;2022-10-18T15:25:01;17.60;99.90
44894;DHT22;30625;52.206;21.030;2022-10-18T15:27:28;17.50;99.90
44894;DHT22;30625;52.206;21.030;2022-10-18T15:29:55;17.50;99.90
44894;DHT22;30625;52.206;21.030;2022-10-18T15:32:24;17.40;99.90
44894;DHT22;30625;52.206;21.030;2022-10-18T15:34:51;17.40;99.90
44894;DHT22;30625;52.206;21.030;2022-10-18T15:40:24;17.30;99.90
44894;DHT22;30625;52.206;21.030;2022-10-18T15:42:54;17.20;99.90
44894;DHT22;30625;52.206;21.030;2022-10-18T15:50:45;17.00;99.90
44894;DHT22;30625;52.206;21.030;2022-10-18T15:58:15;16.70;99.90
44894;DHT22;30625;52.206;21.030;2022-10-18T16:00:41;16.70;99.90
44894;DHT22;30625;52.206;21.030;2022-10-18T16:03:08;16.60;99.90
44894;DHT22;30625;52.206;21.030;2022-10-18T16:05:34;16.40;99.90
44894;DHT22;30625;52.206;21.030;2022-10-18T16:08:00;16.30;99.90
44894;DHT22;30625;52.206;21.030;2022-10-18T16:10:25;16.00;99.90
44894;DHT22;30625;52.206;21.030;2022-10-18T16:12:51;15.80;99.90
44894;DHT22;30625;52.206;21.030;2022-10-18T16:15:16;15.60;99.90
44894;DHT22;30625;52.206;21.030;2022-10-18T16:17:42;15.40;99.90
44894;DHT22;30625;52.206;21.030;2022-10-18T16:20:26;15.20;99.90
44894;DHT22;30625;52.206;21.030;2022-10-18T16:22:52;15.10;99.90
44894;DHT22;30625;52.206;21.030;2022-10-18T16:25:17;15.00;99.90
44894;DHT22;30625;52.206;21.030;2022-10-18T16:27:43;15.00;99.90
44894;DHT22;30625;52.206;21.030;2022-10-18T16:30:15;14.90;99.90
44894;DHT22;30625;52.206;21.030;2022-10-18T16:32:42;14.90;99.90
44894;DHT22;30625;52.206;21.030;2022-10-18T16:35:08;14.90;99.90
44894;DHT22;30625;52.206;21.030;2022-10-18T16:37:35;14.80;99.90
44894;DHT22;30625;52.206;21.030;2022-10-18T16:40:17;14.80;99.90
44894;DHT22;30625;52.206;21.030;2022-10-18T16:42:45;14.80;99.90
44894;DHT22;30625;52.206;21.030;2022-10-18T16:45:10;14.80;99.90
44894;DHT22;30625;52.206;21.030;2022-10-18T16:47:36;14.80;99.90
44894;DHT22;30625;52.206;21.030;2022-10-18T16:50:01;14.80;99.90
44894;DHT22;30625;52.206;21.030;2022-10-18T16:52:32;14.70;99.90
44894;DHT22;30625;52.206;21.030;2022-10-18T16:54:58;14.80;99.90
44894;DHT22;30625;52.206;21.030;2022-10-18T16:57:23;14.70;99.90
44894;DHT22;30625;52.206;21.030;2022-10-18T16:59:49;14.70;99.90
44894;DHT22;30625;52.206;21.030;2022-10-18T17:02:14;14.70;99.90
44894;DHT22;30625;52.206;21.030;2022-10-18T17:04:40;14.70;99.90
44894;DHT22;30625;52.206;21.030;2022-10-18T17:07:06;14.70;99.90
44894;DHT22;30625;52.206;21.030;2022-10-18T17:09:31;14.70;99.90
44894;DHT22;30625;52.206;21.030;2022-10-18T17:11:59;14.70;99.90
44894;DHT22;30625;52.206;21.030;2022-10-18T17:14:24;14.70;99.90
44894;DHT22;30625;52.206;21.030;2022-10-18T17:16:50;14.60;99.90
44894;DHT22;30625;52.206;21.030;2022-10-18T17:19:16;14.60;99.90
44894;DHT22;30625;52.206;21.030;2022-10-18T17:21:41;14.30;99.90
44894;DHT22;30625;52.206;21.030;2022-10-18T17:24:06;14.60;99.90
44894;DHT22;30625;52.206;21.030;2022-10-18T17:26:32;14.60;99.90
44894;DHT22;30625;52.206;21.030;2022-10-18T17:28:59;14.50;99.90
44894;DHT22;30625;52.206;21.030;2022-10-18T17:31:25;14.60;99.90
44894;DHT22;30625;52.206;21.030;2022-10-18T17:33:51;14.50;99.90
44894;DHT22;30625;52.206;21.030;2022-10-18T17:36:19;14.50;99.90
44894;DHT22;30625;52.206;21.030;2022-10-18T17:38:44;14.50;99.90